sensor_id;sensor_type;location;lat;lon;timestamp;P1;durP1;ratioP1;P2;durP2;ratioP2
50779;SDS011;36748;37.428;-121.972;2023-02-01T00:01:57;0.85;;;0.30;;
50779;SDS011;36748;37.428;-121.972;2023-02-01T00:04:23;0.63;;;0.40;;
50779;SDS011;36748;37.428;-121.972;2023-02-01T00:06:49;2.05;;;0.40;;
50779;SDS011;36748;37.428;-121.972;2023-02-01T00:09:15;0.60;;;0.30;;
50779;SDS011;36748;37.428;-121.972;2023-02-01T00:11:42;0.60;;;0.50;;
50779;SDS011;36748;37.428;-121.972;2023-02-01T00:14:08;0.65;;;0.40;;
50779;SDS011;36748;37.428;-121.972;2023-02-01T00:16:34;0.20;;;0.20;;
50779;SDS011;36748;37.428;-121.972;2023-02-01T00:19:02;1.95;;;0.40;;
50779;SDS011;36748;37.428;-121.972;2023-02-01T00:21:33;2.30;;;0.40;;
50779;SDS011;36748;37.428;-121.972;2023-02-01T00:23:59;0.55;;;0.35;;
50779;SDS011;36748;37.428;-121.972;2023-02-01T00:26:27;2.55;;;0.65;;
50779;SDS011;36748;37.428;-121.972;2023-02-01T00:28:57;0.60;;;0.30;;
50779;SDS011;36748;37.428;-121.972;2023-02-01T00:31:23;0.60;;;0.30;;
50779;SDS011;36748;37.428;-121.972;2023-02-01T00:33:49;0.65;;;0.38;;
50779;SDS011;36748;37.428;-121.972;2023-02-01T00:36:16;2.08;;;0.40;;
50779;SDS011;36748;37.428;-121.972;2023-02-01T00:38:42;0.55;;;0.35;;
50779;SDS011;36748;37.428;-121.972;2023-02-01T00:43:36;0.57;;;0.30;;
50779;SDS011;36748;37.428;-121.972;2023-02-01T00:46:03;0.98;;;0.50;;
50779;SDS011;36748;37.428;-121.972;2023-02-01T00:48:29;2.40;;;0.30;;
50779;SDS011;36748;37.428;-121.972;2023-02-01T00:51:03;0.65;;;0.45;;
50779;SDS011;36748;37.428;-121.972;2023-02-01T00:53:31;0.30;;;0.20;;
50779;SDS011;36748;37.428;-121.972;2023-02-01T00:55:58;0.25;;;0.25;;
50779;SDS011;36748;37.428;-121.972;2023-02-01T00:58:24;0.47;;;0.30;;
50779;SDS011;36748;37.428;-121.972;2023-02-01T01:01:13;0.32;;;0.30;;
50779;SDS011;36748;37.428;-121.972;2023-02-01T01:03:43;0.40;;;0.40;;
50779;SDS011;36748;37.428;-121.972;2023-02-01T01:06:12;0.50;;;0.40;;
50779;SDS011;36748;37.428;-121.972;2023-02-01T01:08:40;0.45;;;0.20;;
50779;SDS011;36748;37.428;-121.972;2023-02-01T01:11:07;0.43;;;0.20;;
50779;SDS011;36748;37.428;-121.972;2023-02-01T01:13:35;0.38;;;0.30;;
50779;SDS011;36748;37.428;-121.972;2023-02-01T01:16:02;0.90;;;0.20;;
50779;SDS011;36748;37.428;-121.972;2023-02-01T01:18:30;0.30;;;0.20;;
50779;SDS011;36748;37.428;-121.972;2023-02-01T01:20:57;0.60;;;0.40;;
50779;SDS011;36748;37.428;-121.972;2023-02-01T01:23:23;0.28;;;0.28;;
50779;SDS011;36748;37.428;-121.972;2023-02-01T01:25:49;0.38;;;0.20;;
50779;SDS011;36748;37.428;-121.972;2023-02-01T01:28:16;1.52;;;0.40;;
50779;SDS011;36748;37.428;-121.972;2023-02-01T01:30:42;0.98;;;0.30;;
50779;SDS011;36748;37.428;-121.972;2023-02-01T01:33:09;0.55;;;0.20;;
50779;SDS011;36748;37.428;-121.972;2023-02-01T01:35:35;1.75;;;0.40;;
50779;SDS011;36748;37.428;-121.972;2023-02-01T01:38:01;0.50;;;0.30;;
50779;SDS011;36748;37.428;-121.972;2023-02-01T01:40:28;0.70;;;0.38;;
50779;SDS011;36748;37.428;-121.972;2023-02-01T01:42:55;1.95;;;0.40;;
50779;SDS011;36748;37.428;-121.972;2023-02-01T01:45:32;2.15;;;0.50;;
50779;SDS011;36748;37.428;-121.972;2023-02-01T01:48:04;1.23;;;0.40;;
50779;SDS011;36748;37.428;-121.972;2023-02-01T01:51:00;1.75;;;0.20;;
50779;SDS011;36748;37.428;-121.972;2023-02-01T01:54:16;0.32;;;0.20;;
50779;SDS011;36748;37.428;-121.972;2023-02-01T01:56:21;0.85;;;0.20;;
50779;SDS011;36748;37.428;-121.972;2023-02-01T01:58:48;1.98;;;0.30;;
50779;SDS011;36748;37.428;-121.972;2023-02-01T02:01:14;0.65;;;0.30;;
50779;SDS011;36748;37.428;-121.972;2023-02-01T02:03:42;0.90;;;0.32;;
50779;SDS011;36748;37.428;-121.972;2023-02-01T02:09:00;0.40;;;0.40;;
50779;SDS011;36748;37.428;-121.972;2023-02-01T02:11:26;0.70;;;0.30;;
50779;SDS011;36748;37.428;-121.972;2023-02-01T02:13:53;0.73;;;0.40;;
50779;SDS011;36748;37.428;-121.972;2023-02-01T02:32:47;0.30;;;0.20;;
50779;SDS011;36748;37.428;-121.972;2023-02-01T02:35:33;1.95;;;0.50;;
50779;SDS011;36748;37.428;-121.972;2023-02-01T02:38:11;0.65;;;0.20;;
50779;SDS011;36748;37.428;-121.972;2023-02-01T02:44:00;0.20;;;0.20;;
50779;SDS011;36748;37.428;-121.972;2023-02-01T02:47:02;0.50;;;0.20;;
50779;SDS011;36748;37.428;-121.972;2023-02-01T02:49:58;1.20;;;0.35;;
50779;SDS011;36748;37.428;-121.972;2023-02-01T02:58:02;0.30;;;0.28;;
50779;SDS011;36748;37.428;-121.972;2023-02-01T03:00:48;0.20;;;0.20;;
50779;SDS011;36748;37.428;-121.972;2023-02-01T03:03:37;1.45;;;0.30;;
50779;SDS011;36748;37.428;-121.972;2023-02-01T03:06:22;1.40;;;0.40;;
50779;SDS011;36748;37.428;-121.972;2023-02-01T03:08:50;0.80;;;0.50;;
50779;SDS011;36748;37.428;-121.972;2023-02-01T03:11:22;0.93;;;0.40;;
50779;SDS011;36748;37.428;-121.972;2023-02-01T03:14:09;2.40;;;0.30;;
50779;SDS011;36748;37.428;-121.972;2023-02-01T03:16:40;0.82;;;0.35;;
50779;SDS011;36748;37.428;-121.972;2023-02-01T03:21:57;2.35;;;0.40;;
50779;SDS011;36748;37.428;-121.972;2023-02-01T03:27:08;5.13;;;0.40;;
50779;SDS011;36748;37.428;-121.972;2023-02-01T03:30:22;2.72;;;0.60;;
50779;SDS011;36748;37.428;-121.972;2023-02-01T03:32:48;2.97;;;0.65;;
50779;SDS011;36748;37.428;-121.972;2023-02-01T03:38:45;2.08;;;0.50;;
50779;SDS011;36748;37.428;-121.972;2023-02-01T03:40:53;1.60;;;0.43;;
50779;SDS011;36748;37.428;-121.972;2023-02-01T03:43:37;4.80;;;0.40;;
50779;SDS011;36748;37.428;-121.972;2023-02-01T03:46:35;3.17;;;0.40;;
50779;SDS011;36748;37.428;-121.972;2023-02-01T03:49:08;4.93;;;0.30;;
50779;SDS011;36748;37.428;-121.972;2023-02-01T03:51:38;2.13;;;0.25;;
50779;SDS011;36748;37.428;-121.972;2023-02-01T03:54:05;1.40;;;0.40;;
50779;SDS011;36748;37.428;-121.972;2023-02-01T03:56:36;2.13;;;0.38;;
50779;SDS011;36748;37.428;-121.972;2023-02-01T03:59:04;2.72;;;0.43;;
50779;SDS011;36748;37.428;-121.972;2023-02-01T04:01:34;0.57;;;0.20;;
50779;SDS011;36748;37.428;-121.972;2023-02-01T04:04:04;0.50;;;0.30;;
50779;SDS011;36748;37.428;-121.972;2023-02-01T04:06:31;0.95;;;0.40;;
50779;SDS011;36748;37.428;-121.972;2023-02-01T04:08:57;1.98;;;0.50;;
50779;SDS011;36748;37.428;-121.972;2023-02-01T04:11:23;3.83;;;0.47;;
50779;SDS011;36748;37.428;-121.972;2023-02-01T04:13:49;1.35;;;0.30;;
50779;SDS011;36748;37.428;-121.972;2023-02-01T04:16:18;1.23;;;0.30;;
50779;SDS011;36748;37.428;-121.972;2023-02-01T04:18:45;0.60;;;0.40;;
50779;SDS011;36748;37.428;-121.972;2023-02-01T04:21:12;0.82;;;0.30;;
50779;SDS011;36748;37.428;-121.972;2023-02-01T04:23:38;1.83;;;0.50;;
50779;SDS011;36748;37.428;-121.972;2023-02-01T04:26:04;3.70;;;0.40;;
50779;SDS011;36748;37.428;-121.972;2023-02-01T04:28:31;6.13;;;0.70;;
50779;SDS011;36748;37.428;-121.972;2023-02-01T04:30:57;0.43;;;0.32;;
50779;SDS011;36748;37.428;-121.972;2023-02-01T04:33:24;1.75;;;0.30;;
50779;SDS011;36748;37.428;-121.972;2023-02-01T04:35:50;1.05;;;0.40;;
50779;SDS011;36748;37.428;-121.972;2023-02-01T04:38:17;0.43;;;0.40;;
50779;SDS011;36748;37.428;-121.972;2023-02-01T04:40:46;0.98;;;0.50;;
50779;SDS011;36748;37.428;-121.972;2023-02-01T04:43:12;0.63;;;0.30;;
50779;SDS011;36748;37.428;-121.972;2023-02-01T04:45:39;2.13;;;0.50;;
50779;SDS011;36748;37.428;-121.972;2023-02-01T04:48:05;0.65;;;0.32;;
50779;SDS011;36748;37.428;-121.972;2023-02-01T04:50:32;0.88;;;0.35;;
50779;SDS011;36748;37.428;-121.972;2023-02-01T04:52:58;1.77;;;0.38;;
50779;SDS011;36748;37.428;-121.972;2023-02-01T04:55:25;2.65;;;0.30;;
50779;SDS011;36748;37.428;-121.972;2023-02-01T04:57:51;1.05;;;0.40;;
50779;SDS011;36748;37.428;-121.972;2023-02-01T05:00:18;1.13;;;0.40;;
50779;SDS011;36748;37.428;-121.972;2023-02-01T05:02:48;0.50;;;0.45;;
50779;SDS011;36748;37.428;-121.972;2023-02-01T05:05:14;1.38;;;0.45;;
50779;SDS011;36748;37.428;-121.972;2023-02-01T05:07:41;1.10;;;0.40;;
50779;SDS011;36748;37.428;-121.972;2023-02-01T05:10:07;0.98;;;0.50;;
50779;SDS011;36748;37.428;-121.972;2023-02-01T05:12:34;0.70;;;0.30;;
50779;SDS011;36748;37.428;-121.972;2023-02-01T05:15:18;3.10;;;0.50;;
50779;SDS011;36748;37.428;-121.972;2023-02-01T05:17:45;2.35;;;0.43;;
50779;SDS011;36748;37.428;-121.972;2023-02-01T05:20:11;0.73;;;0.40;;
50779;SDS011;36748;37.428;-121.972;2023-02-01T05:22:37;0.50;;;0.30;;
50779;SDS011;36748;37.428;-121.972;2023-02-01T05:25:03;0.95;;;0.52;;
50779;SDS011;36748;37.428;-121.972;2023-02-01T05:27:30;1.08;;;0.50;;
50779;SDS011;36748;37.428;-121.972;2023-02-01T05:29:56;0.50;;;0.38;;
50779;SDS011;36748;37.428;-121.972;2023-02-01T05:32:22;2.08;;;0.90;;
50779;SDS011;36748;37.428;-121.972;2023-02-01T05:34:49;1.00;;;0.60;;
50779;SDS011;36748;37.428;-121.972;2023-02-01T05:37:15;1.33;;;0.50;;
50779;SDS011;36748;37.428;-121.972;2023-02-01T05:39:41;1.13;;;0.40;;
50779;SDS011;36748;37.428;-121.972;2023-02-01T05:42:07;0.65;;;0.47;;
50779;SDS011;36748;37.428;-121.972;2023-02-01T05:44:34;0.50;;;0.30;;
50779;SDS011;36748;37.428;-121.972;2023-02-01T05:47:01;1.10;;;0.43;;
50779;SDS011;36748;37.428;-121.972;2023-02-01T05:49:27;2.17;;;0.45;;
50779;SDS011;36748;37.428;-121.972;2023-02-01T05:51:53;0.75;;;0.38;;
50779;SDS011;36748;37.428;-121.972;2023-02-01T05:54:19;0.95;;;0.52;;
50779;SDS011;36748;37.428;-121.972;2023-02-01T05:56:46;1.80;;;0.50;;
50779;SDS011;36748;37.428;-121.972;2023-02-01T05:59:12;0.38;;;0.38;;
50779;SDS011;36748;37.428;-121.972;2023-02-01T06:01:38;2.40;;;0.50;;
50779;SDS011;36748;37.428;-121.972;2023-02-01T06:04:04;0.70;;;0.50;;
50779;SDS011;36748;37.428;-121.972;2023-02-01T06:06:31;0.95;;;0.50;;
50779;SDS011;36748;37.428;-121.972;2023-02-01T06:08:57;1.17;;;0.40;;
50779;SDS011;36748;37.428;-121.972;2023-02-01T06:11:23;3.50;;;0.52;;
50779;SDS011;36748;37.428;-121.972;2023-02-01T06:13:50;1.23;;;0.40;;
50779;SDS011;36748;37.428;-121.972;2023-02-01T06:16:16;0.75;;;0.50;;
50779;SDS011;36748;37.428;-121.972;2023-02-01T06:18:42;3.67;;;0.68;;
50779;SDS011;36748;37.428;-121.972;2023-02-01T06:21:09;1.15;;;0.50;;
50779;SDS011;36748;37.428;-121.972;2023-02-01T06:23:35;0.57;;;0.40;;
50779;SDS011;36748;37.428;-121.972;2023-02-01T06:26:04;0.95;;;0.70;;
50779;SDS011;36748;37.428;-121.972;2023-02-01T06:28:33;2.75;;;0.50;;
50779;SDS011;36748;37.428;-121.972;2023-02-01T06:31:06;0.77;;;0.63;;
50779;SDS011;36748;37.428;-121.972;2023-02-01T06:33:33;0.68;;;0.57;;
50779;SDS011;36748;37.428;-121.972;2023-02-01T06:36:00;0.63;;;0.55;;
50779;SDS011;36748;37.428;-121.972;2023-02-01T06:38:28;1.67;;;0.30;;
50779;SDS011;36748;37.428;-121.972;2023-02-01T06:40:56;1.25;;;0.85;;
50779;SDS011;36748;37.428;-121.972;2023-02-01T06:43:23;0.40;;;0.40;;
50779;SDS011;36748;37.428;-121.972;2023-02-01T06:45:50;0.65;;;0.40;;
50779;SDS011;36748;37.428;-121.972;2023-02-01T06:48:17;0.82;;;0.65;;
50779;SDS011;36748;37.428;-121.972;2023-02-01T06:50:43;0.88;;;0.63;;
50779;SDS011;36748;37.428;-121.972;2023-02-01T06:53:10;1.02;;;0.50;;
50779;SDS011;36748;37.428;-121.972;2023-02-01T06:55:36;0.55;;;0.52;;
50779;SDS011;36748;37.428;-121.972;2023-02-01T06:58:02;2.55;;;0.60;;
50779;SDS011;36748;37.428;-121.972;2023-02-01T07:00:31;1.70;;;0.75;;
50779;SDS011;36748;37.428;-121.972;2023-02-01T07:02:58;0.45;;;0.40;;
50779;SDS011;36748;37.428;-121.972;2023-02-01T07:05:25;1.15;;;0.60;;
50779;SDS011;36748;37.428;-121.972;2023-02-01T07:07:51;0.85;;;0.73;;
50779;SDS011;36748;37.428;-121.972;2023-02-01T07:10:17;1.63;;;0.80;;
50779;SDS011;36748;37.428;-121.972;2023-02-01T07:12:43;2.70;;;0.63;;
50779;SDS011;36748;37.428;-121.972;2023-02-01T07:15:10;4.22;;;0.57;;
50779;SDS011;36748;37.428;-121.972;2023-02-01T07:17:36;0.75;;;0.60;;
50779;SDS011;36748;37.428;-121.972;2023-02-01T07:20:03;0.60;;;0.40;;
50779;SDS011;36748;37.428;-121.972;2023-02-01T07:22:30;0.73;;;0.55;;
50779;SDS011;36748;37.428;-121.972;2023-02-01T07:24:56;0.52;;;0.40;;
50779;SDS011;36748;37.428;-121.972;2023-02-01T07:27:23;0.50;;;0.47;;
50779;SDS011;36748;37.428;-121.972;2023-02-01T07:29:51;0.45;;;0.45;;
50779;SDS011;36748;37.428;-121.972;2023-02-01T07:32:17;1.33;;;0.55;;
50779;SDS011;36748;37.428;-121.972;2023-02-01T07:34:44;0.98;;;0.60;;
50779;SDS011;36748;37.428;-121.972;2023-02-01T07:37:10;1.35;;;0.70;;
50779;SDS011;36748;37.428;-121.972;2023-02-01T07:39:36;1.10;;;0.60;;
50779;SDS011;36748;37.428;-121.972;2023-02-01T07:42:03;0.90;;;0.50;;
50779;SDS011;36748;37.428;-121.972;2023-02-01T07:44:29;0.70;;;0.52;;
50779;SDS011;36748;37.428;-121.972;2023-02-01T07:46:55;1.00;;;0.52;;
50779;SDS011;36748;37.428;-121.972;2023-02-01T07:49:21;1.23;;;0.60;;
50779;SDS011;36748;37.428;-121.972;2023-02-01T07:51:47;0.63;;;0.50;;
50779;SDS011;36748;37.428;-121.972;2023-02-01T07:54:14;0.60;;;0.60;;
50779;SDS011;36748;37.428;-121.972;2023-02-01T07:56:40;0.70;;;0.60;;
50779;SDS011;36748;37.428;-121.972;2023-02-01T07:59:06;1.20;;;0.57;;
50779;SDS011;36748;37.428;-121.972;2023-02-01T08:01:33;0.93;;;0.80;;
50779;SDS011;36748;37.428;-121.972;2023-02-01T08:04:00;0.70;;;0.70;;
50779;SDS011;36748;37.428;-121.972;2023-02-01T08:06:27;0.93;;;0.60;;
50779;SDS011;36748;37.428;-121.972;2023-02-01T08:08:56;0.80;;;0.65;;
50779;SDS011;36748;37.428;-121.972;2023-02-01T08:11:23;0.82;;;0.57;;
50779;SDS011;36748;37.428;-121.972;2023-02-01T08:13:50;1.25;;;0.80;;
50779;SDS011;36748;37.428;-121.972;2023-02-01T08:16:17;0.73;;;0.60;;
50779;SDS011;36748;37.428;-121.972;2023-02-01T08:18:44;0.75;;;0.70;;
50779;SDS011;36748;37.428;-121.972;2023-02-01T08:21:15;1.50;;;0.70;;
50779;SDS011;36748;37.428;-121.972;2023-02-01T08:23:43;0.80;;;0.77;;
50779;SDS011;36748;37.428;-121.972;2023-02-01T08:28:49;0.85;;;0.70;;
50779;SDS011;36748;37.428;-121.972;2023-02-01T08:31:18;1.33;;;0.82;;
50779;SDS011;36748;37.428;-121.972;2023-02-01T08:33:50;1.05;;;0.80;;
50779;SDS011;36748;37.428;-121.972;2023-02-01T08:36:18;0.60;;;0.60;;
50779;SDS011;36748;37.428;-121.972;2023-02-01T08:38:45;2.25;;;0.63;;
50779;SDS011;36748;37.428;-121.972;2023-02-01T08:41:15;0.90;;;0.50;;
50779;SDS011;36748;37.428;-121.972;2023-02-01T08:43:44;0.80;;;0.80;;
50779;SDS011;36748;37.428;-121.972;2023-02-01T08:46:11;0.98;;;0.65;;
50779;SDS011;36748;37.428;-121.972;2023-02-01T08:48:37;0.70;;;0.70;;
50779;SDS011;36748;37.428;-121.972;2023-02-01T08:51:04;0.60;;;0.60;;
50779;SDS011;36748;37.428;-121.972;2023-02-01T08:53:35;3.17;;;0.70;;
50779;SDS011;36748;37.428;-121.972;2023-02-01T08:56:02;1.02;;;0.95;;
50779;SDS011;36748;37.428;-121.972;2023-02-01T08:58:28;2.67;;;0.80;;
50779;SDS011;36748;37.428;-121.972;2023-02-01T09:00:54;1.33;;;0.77;;
50779;SDS011;36748;37.428;-121.972;2023-02-01T09:03:21;0.80;;;0.70;;
50779;SDS011;36748;37.428;-121.972;2023-02-01T09:05:47;0.63;;;0.63;;
50779;SDS011;36748;37.428;-121.972;2023-02-01T09:08:13;1.48;;;0.82;;
50779;SDS011;36748;37.428;-121.972;2023-02-01T09:10:40;0.70;;;0.70;;
50779;SDS011;36748;37.428;-121.972;2023-02-01T09:13:08;0.82;;;0.70;;
50779;SDS011;36748;37.428;-121.972;2023-02-01T09:15:34;1.20;;;0.75;;
50779;SDS011;36748;37.428;-121.972;2023-02-01T09:18:00;1.50;;;0.80;;
50779;SDS011;36748;37.428;-121.972;2023-02-01T09:20:27;0.70;;;0.70;;
50779;SDS011;36748;37.428;-121.972;2023-02-01T09:22:54;2.05;;;0.80;;
50779;SDS011;36748;37.428;-121.972;2023-02-01T09:25:20;2.03;;;0.75;;
50779;SDS011;36748;37.428;-121.972;2023-02-01T09:27:47;0.88;;;0.88;;
50779;SDS011;36748;37.428;-121.972;2023-02-01T09:30:13;4.80;;;0.70;;
50779;SDS011;36748;37.428;-121.972;2023-02-01T09:32:39;1.90;;;0.73;;
50779;SDS011;36748;37.428;-121.972;2023-02-01T09:35:05;0.82;;;0.70;;
50779;SDS011;36748;37.428;-121.972;2023-02-01T09:37:32;0.80;;;0.80;;
50779;SDS011;36748;37.428;-121.972;2023-02-01T09:39:58;0.90;;;0.80;;
50779;SDS011;36748;37.428;-121.972;2023-02-01T09:45:17;2.58;;;0.90;;
50779;SDS011;36748;37.428;-121.972;2023-02-01T09:47:46;1.52;;;0.93;;
50779;SDS011;36748;37.428;-121.972;2023-02-01T09:50:16;1.45;;;0.80;;
50779;SDS011;36748;37.428;-121.972;2023-02-01T09:55:41;1.20;;;0.85;;
50779;SDS011;36748;37.428;-121.972;2023-02-01T10:00:54;2.17;;;0.73;;
50779;SDS011;36748;37.428;-121.972;2023-02-01T10:03:26;1.48;;;0.90;;
50779;SDS011;36748;37.428;-121.972;2023-02-01T10:06:02;1.55;;;0.70;;
50779;SDS011;36748;37.428;-121.972;2023-02-01T10:09:31;0.65;;;0.65;;
50779;SDS011;36748;37.428;-121.972;2023-02-01T10:26:21;0.85;;;0.75;;
50779;SDS011;36748;37.428;-121.972;2023-02-01T10:29:34;1.08;;;0.90;;
50779;SDS011;36748;37.428;-121.972;2023-02-01T10:31:45;0.77;;;0.63;;
50779;SDS011;36748;37.428;-121.972;2023-02-01T10:34:21;1.13;;;0.70;;
50779;SDS011;36748;37.428;-121.972;2023-02-01T10:39:27;0.93;;;0.77;;
50779;SDS011;36748;37.428;-121.972;2023-02-01T10:41:54;1.20;;;0.95;;
50779;SDS011;36748;37.428;-121.972;2023-02-01T10:44:25;0.80;;;0.80;;
50779;SDS011;36748;37.428;-121.972;2023-02-01T10:46:53;1.50;;;0.70;;
50779;SDS011;36748;37.428;-121.972;2023-02-01T10:49:26;1.20;;;0.82;;
50779;SDS011;36748;37.428;-121.972;2023-02-01T10:52:00;0.82;;;0.77;;
50779;SDS011;36748;37.428;-121.972;2023-02-01T10:54:33;1.23;;;0.93;;
50779;SDS011;36748;37.428;-121.972;2023-02-01T10:57:03;0.85;;;0.68;;
50779;SDS011;36748;37.428;-121.972;2023-02-01T10:59:37;1.80;;;0.85;;
50779;SDS011;36748;37.428;-121.972;2023-02-01T11:02:19;0.95;;;0.93;;
50779;SDS011;36748;37.428;-121.972;2023-02-01T11:05:07;1.00;;;0.88;;
50779;SDS011;36748;37.428;-121.972;2023-02-01T11:07:35;0.80;;;0.80;;
50779;SDS011;36748;37.428;-121.972;2023-02-01T11:10:02;0.85;;;0.80;;
50779;SDS011;36748;37.428;-121.972;2023-02-01T11:12:38;1.00;;;0.90;;
50779;SDS011;36748;37.428;-121.972;2023-02-01T11:15:20;1.20;;;0.80;;
50779;SDS011;36748;37.428;-121.972;2023-02-01T11:17:48;0.88;;;0.80;;
50779;SDS011;36748;37.428;-121.972;2023-02-01T11:20:35;1.05;;;0.93;;
50779;SDS011;36748;37.428;-121.972;2023-02-01T11:23:05;1.35;;;0.80;;
50779;SDS011;36748;37.428;-121.972;2023-02-01T11:25:36;1.05;;;0.90;;
50779;SDS011;36748;37.428;-121.972;2023-02-01T11:28:02;0.75;;;0.73;;
50779;SDS011;36748;37.428;-121.972;2023-02-01T11:32:59;0.90;;;0.80;;
50779;SDS011;36748;37.428;-121.972;2023-02-01T11:35:26;2.05;;;0.90;;
50779;SDS011;36748;37.428;-121.972;2023-02-01T11:37:55;1.10;;;1.00;;
50779;SDS011;36748;37.428;-121.972;2023-02-01T11:40:28;0.80;;;0.63;;
50779;SDS011;36748;37.428;-121.972;2023-02-01T11:43:01;1.00;;;0.90;;
50779;SDS011;36748;37.428;-121.972;2023-02-01T11:45:38;2.78;;;1.13;;
50779;SDS011;36748;37.428;-121.972;2023-02-01T11:48:09;1.60;;;0.90;;
50779;SDS011;36748;37.428;-121.972;2023-02-01T11:50:47;1.30;;;1.20;;
50779;SDS011;36748;37.428;-121.972;2023-02-01T11:54:10;3.03;;;0.90;;
50779;SDS011;36748;37.428;-121.972;2023-02-01T11:56:43;3.60;;;0.85;;
50779;SDS011;36748;37.428;-121.972;2023-02-01T12:07:52;1.30;;;0.82;;
50779;SDS011;36748;37.428;-121.972;2023-02-01T12:10:33;1.27;;;1.00;;
50779;SDS011;36748;37.428;-121.972;2023-02-01T12:13:26;1.17;;;0.95;;
50779;SDS011;36748;37.428;-121.972;2023-02-01T12:16:23;1.65;;;1.02;;
50779;SDS011;36748;37.428;-121.972;2023-02-01T12:30:48;1.17;;;0.90;;
50779;SDS011;36748;37.428;-121.972;2023-02-01T12:39:24;2.15;;;1.00;;
50779;SDS011;36748;37.428;-121.972;2023-02-01T12:47:05;0.82;;;0.70;;
50779;SDS011;36748;37.428;-121.972;2023-02-01T12:55:03;0.80;;;0.80;;
50779;SDS011;36748;37.428;-121.972;2023-02-01T12:58:12;1.13;;;0.93;;
50779;SDS011;36748;37.428;-121.972;2023-02-01T13:01:03;0.68;;;0.68;;
50779;SDS011;36748;37.428;-121.972;2023-02-01T13:03:34;0.93;;;0.82;;
50779;SDS011;36748;37.428;-121.972;2023-02-01T13:06:06;0.73;;;0.73;;
50779;SDS011;36748;37.428;-121.972;2023-02-01T13:11:31;1.17;;;0.95;;
50779;SDS011;36748;37.428;-121.972;2023-02-01T13:14:27;1.00;;;0.77;;
50779;SDS011;36748;37.428;-121.972;2023-02-01T13:17:11;0.95;;;0.85;;
50779;SDS011;36748;37.428;-121.972;2023-02-01T13:19:48;2.83;;;1.00;;
50779;SDS011;36748;37.428;-121.972;2023-02-01T13:22:18;2.38;;;1.02;;
50779;SDS011;36748;37.428;-121.972;2023-02-01T13:24:50;1.55;;;0.90;;
50779;SDS011;36748;37.428;-121.972;2023-02-01T13:27:26;2.15;;;1.00;;
50779;SDS011;36748;37.428;-121.972;2023-02-01T13:37:28;1.73;;;0.82;;
50779;SDS011;36748;37.428;-121.972;2023-02-01T13:40:21;0.80;;;0.70;;
50779;SDS011;36748;37.428;-121.972;2023-02-01T13:43:01;0.90;;;0.90;;
50779;SDS011;36748;37.428;-121.972;2023-02-01T13:45:33;1.02;;;0.80;;
50779;SDS011;36748;37.428;-121.972;2023-02-01T13:48:03;0.70;;;0.70;;
50779;SDS011;36748;37.428;-121.972;2023-02-01T13:50:31;0.73;;;0.60;;
50779;SDS011;36748;37.428;-121.972;2023-02-01T13:53:13;0.95;;;0.73;;
50779;SDS011;36748;37.428;-121.972;2023-02-01T13:55:47;0.90;;;0.80;;
50779;SDS011;36748;37.428;-121.972;2023-02-01T13:58:28;0.47;;;0.47;;
50779;SDS011;36748;37.428;-121.972;2023-02-01T14:03:48;1.20;;;0.50;;
50779;SDS011;36748;37.428;-121.972;2023-02-01T14:06:34;0.50;;;0.47;;
50779;SDS011;36748;37.428;-121.972;2023-02-01T14:09:13;0.70;;;0.70;;
50779;SDS011;36748;37.428;-121.972;2023-02-01T14:11:46;1.10;;;0.90;;
50779;SDS011;36748;37.428;-121.972;2023-02-01T14:16:42;1.20;;;0.70;;
50779;SDS011;36748;37.428;-121.972;2023-02-01T14:19:25;1.70;;;1.08;;
50779;SDS011;36748;37.428;-121.972;2023-02-01T14:24:53;1.10;;;0.60;;
50779;SDS011;36748;37.428;-121.972;2023-02-01T14:27:21;0.88;;;0.70;;
50779;SDS011;36748;37.428;-121.972;2023-02-01T14:29:53;0.80;;;0.80;;
50779;SDS011;36748;37.428;-121.972;2023-02-01T14:32:31;0.60;;;0.60;;
50779;SDS011;36748;37.428;-121.972;2023-02-01T14:35:01;0.60;;;0.60;;
50779;SDS011;36748;37.428;-121.972;2023-02-01T14:37:31;0.60;;;0.60;;
50779;SDS011;36748;37.428;-121.972;2023-02-01T14:40:01;1.20;;;0.88;;
50779;SDS011;36748;37.428;-121.972;2023-02-01T14:42:52;0.88;;;0.88;;
50779;SDS011;36748;37.428;-121.972;2023-02-01T14:50:49;3.40;;;1.20;;
50779;SDS011;36748;37.428;-121.972;2023-02-01T14:53:24;1.27;;;0.73;;
50779;SDS011;36748;37.428;-121.972;2023-02-01T15:01:05;0.80;;;0.70;;
50779;SDS011;36748;37.428;-121.972;2023-02-01T15:06:31;0.80;;;0.63;;
50779;SDS011;36748;37.428;-121.972;2023-02-01T15:09:09;0.60;;;0.60;;
50779;SDS011;36748;37.428;-121.972;2023-02-01T15:14:21;1.83;;;0.77;;
50779;SDS011;36748;37.428;-121.972;2023-02-01T15:16:47;1.48;;;1.10;;
50779;SDS011;36748;37.428;-121.972;2023-02-01T15:19:22;1.58;;;0.80;;
50779;SDS011;36748;37.428;-121.972;2023-02-01T15:21:53;1.77;;;0.90;;
50779;SDS011;36748;37.428;-121.972;2023-02-01T15:26:49;3.55;;;0.90;;
50779;SDS011;36748;37.428;-121.972;2023-02-01T15:29:17;4.05;;;1.00;;
50779;SDS011;36748;37.428;-121.972;2023-02-01T15:31:45;0.93;;;0.80;;
50779;SDS011;36748;37.428;-121.972;2023-02-01T15:34:14;1.02;;;0.93;;
50779;SDS011;36748;37.428;-121.972;2023-02-01T15:36:41;1.05;;;0.70;;
50779;SDS011;36748;37.428;-121.972;2023-02-01T15:39:41;0.65;;;0.60;;
50779;SDS011;36748;37.428;-121.972;2023-02-01T15:42:09;3.80;;;1.05;;
50779;SDS011;36748;37.428;-121.972;2023-02-01T15:44:38;4.10;;;1.30;;
50779;SDS011;36748;37.428;-121.972;2023-02-01T15:47:27;1.38;;;0.80;;
50779;SDS011;36748;37.428;-121.972;2023-02-01T15:49:54;2.45;;;1.13;;
50779;SDS011;36748;37.428;-121.972;2023-02-01T15:58:06;1.35;;;1.02;;
50779;SDS011;36748;37.428;-121.972;2023-02-01T16:00:43;1.70;;;1.05;;
50779;SDS011;36748;37.428;-121.972;2023-02-01T16:06:04;3.47;;;0.82;;
50779;SDS011;36748;37.428;-121.972;2023-02-01T16:08:48;0.95;;;0.85;;
50779;SDS011;36748;37.428;-121.972;2023-02-01T16:11:24;1.80;;;0.90;;
50779;SDS011;36748;37.428;-121.972;2023-02-01T16:16:26;8.30;;;1.30;;
50779;SDS011;36748;37.428;-121.972;2023-02-01T16:18:57;4.68;;;1.50;;
50779;SDS011;36748;37.428;-121.972;2023-02-01T16:21:26;4.65;;;1.50;;
50779;SDS011;36748;37.428;-121.972;2023-02-01T16:23:52;7.18;;;2.40;;
50779;SDS011;36748;37.428;-121.972;2023-02-01T16:26:19;17.55;;;3.35;;
50779;SDS011;36748;37.428;-121.972;2023-02-01T16:28:48;21.13;;;3.85;;
50779;SDS011;36748;37.428;-121.972;2023-02-01T16:31:15;16.10;;;4.07;;
50779;SDS011;36748;37.428;-121.972;2023-02-01T16:33:49;14.10;;;3.83;;
50779;SDS011;36748;37.428;-121.972;2023-02-01T16:36:16;18.63;;;3.00;;
50779;SDS011;36748;37.428;-121.972;2023-02-01T16:38:44;12.65;;;2.63;;
50779;SDS011;36748;37.428;-121.972;2023-02-01T16:41:21;10.30;;;2.60;;
50779;SDS011;36748;37.428;-121.972;2023-02-01T16:43:53;20.08;;;2.60;;
50779;SDS011;36748;37.428;-121.972;2023-02-01T16:46:21;8.60;;;2.38;;
50779;SDS011;36748;37.428;-121.972;2023-02-01T16:48:55;9.75;;;2.75;;
50779;SDS011;36748;37.428;-121.972;2023-02-01T16:51:23;9.88;;;2.53;;
50779;SDS011;36748;37.428;-121.972;2023-02-01T16:54:00;14.23;;;2.83;;
50779;SDS011;36748;37.428;-121.972;2023-02-01T16:56:31;8.43;;;2.35;;
50779;SDS011;36748;37.428;-121.972;2023-02-01T16:58:59;7.13;;;2.20;;
50779;SDS011;36748;37.428;-121.972;2023-02-01T17:01:25;7.15;;;2.20;;
50779;SDS011;36748;37.428;-121.972;2023-02-01T17:03:51;6.97;;;2.30;;
50779;SDS011;36748;37.428;-121.972;2023-02-01T17:06:19;5.75;;;2.15;;